Time;durP1;ratioP1;P1;durP2;ratioP2;P2;SDS_P1;SDS_P2;PMS_P1;PMS_P2;Temp;Humidity;BMP_temperature;BMP_pressure;BME280_temperature;BME280_humidity;BME280_pressure;Samples;Min_cycle;Max_cycle;Signal;HPM_P1;HPM_P2
2023/12/08 00:01:13;;;;;;;12.10;7.30;;;;;;;;;;5055220;28;20048;-77
2023/12/08 00:03:41;;;;;;;13.18;7.85;;;;;;;;;;5073191;28;20060;-77
2023/12/08 00:06:08;;;;;;;13.15;7.32;;;;;;;;;;5054403;28;20123;-77
2023/12/08 00:08:35;;;;;;;12.52;7.78;;;;;;;;;;5069920;28;20060;-78
2023/12/08 00:11:02;;;;;;;13.23;7.63;;;;;;;;;;5050549;28;20028;-77
2023/12/08 00:13:29;;;;;;;11.93;7.63;;;;;;;;;;5067677;28;20080;-77
2023/12/08 00:15:56;;;;;;;10.13;6.65;;;;;;;;;;5089959;28;20036;-77
2023/12/08 00:18:23;;;;;;;10.80;7.65;;;;;;;;;;5086995;28;20036;-77
2023/12/08 00:20:50;;;;;;;10.38;7.22;;;;;;;;;;5088932;28;20048;-77
2023/12/08 00:23:17;;;;;;;10.13;6.82;;;;;;;;;;5097513;28;20052;-77
2023/12/08 00:25:44;;;;;;;11.73;7.50;;;;;;;;;;5096635;28;20548;-77
2023/12/08 00:28:11;;;;;;;11.63;7.32;;;;;;;;;;5097593;28;20048;-77
2023/12/08 00:30:38;;;;;;;10.15;6.57;;;;;;;;;;5070359;28;20049;-77
2023/12/08 00:33:04;;;;;;;11.95;7.32;;;;;;;;;;5065525;28;20060;-77
2023/12/08 00:35:31;;;;;;;11.30;7.32;;;;;;;;;;5089865;28;20063;-77
2023/12/08 00:37:58;;;;;;;16.25;7.55;;;;;;;;;;5056169;28;20059;-77
2023/12/08 00:40:25;;;;;;;10.50;7.38;;;;;;;;;;5090282;28;20052;-77
2023/12/08 00:42:52;;;;;;;10.10;6.82;;;;;;;;;;5038999;28;20418;-77
2023/12/08 00:45:19;;;;;;;12.63;7.45;;;;;;;;;;5090147;28;20418;-77
2023/12/08 00:47:46;;;;;;;11.85;7.60;;;;;;;;;;5090121;28;20098;-77
2023/12/08 00:50:13;;;;;;;10.10;6.75;;;;;;;;;;5073359;28;20056;-77
2023/12/08 00:52:40;;;;;;;10.75;7.15;;;;;;;;;;5073318;28;20125;-77
2023/12/08 00:55:07;;;;;;;13.63;6.75;;;;;;;;;;5053082;28;20053;-77
2023/12/08 00:57:34;;;;;;;10.90;6.72;;;;;;;;;;5049282;28;20060;-77
2023/12/08 01:00:01;;;;;;;9.65;6.63;;;;;;;;;;5056288;28;20049;-77
2023/12/08 01:02:28;;;;;;;10.80;7.40;;;;;;;;;;5069980;28;20067;-77
2023/12/08 01:04:55;;;;;;;12.18;7.40;;;;;;;;;;5054832;28;20052;-77
2023/12/08 01:07:22;;;;;;;11.77;8.43;;;;;;;;;;5053168;28;20059;-77
2023/12/08 01:09:49;;;;;;;10.35;7.10;;;;;;;;;;5052052;28;20053;-77
2023/12/08 01:12:16;;;;;;;11.80;7.45;;;;;;;;;;5069256;28;20499;-77
2023/12/08 01:14:42;;;;;;;11.60;7.35;;;;;;;;;;5069243;28;20087;-77
2023/12/08 01:17:09;;;;;;;10.77;7.32;;;;;;;;;;5089474;28;20135;-78
2023/12/08 01:19:36;;;;;;;10.57;6.55;;;;;;;;;;5074145;28;20460;-77
2023/12/08 01:22:03;;;;;;;11.25;7.00;;;;;;;;;;5089572;28;20140;-77
2023/12/08 01:24:30;;;;;;;12.88;6.95;;;;;;;;;;5072634;28;20048;-78
2023/12/08 01:26:57;;;;;;;10.68;7.50;;;;;;;;;;5072941;28;20075;-78
2023/12/08 01:29:23;;;;;;;11.98;6.63;;;;;;;;;;5089421;28;20052;-77
2023/12/08 01:31:51;;;;;;;10.30;6.63;;;;;;;;;;5089071;28;20091;-77
2023/12/08 01:34:18;;;;;;;11.13;7.25;;;;;;;;;;5052124;28;20130;-77
2023/12/08 01:36:45;;;;;;;8.70;6.32;;;;;;;;;;5050766;28;20064;-77
2023/12/08 01:39:12;;;;;;;12.57;6.97;;;;;;;;;;5052352;28;20493;-77
2023/12/08 01:41:39;;;;;;;12.20;7.15;;;;;;;;;;5068688;28;20049;-77
2023/12/08 01:44:06;;;;;;;12.35;7.43;;;;;;;;;;5088696;28;20052;-77
2023/12/08 01:46:35;;;;;;;11.23;7.38;;;;;;;;;;5035973;28;20520;-77
2023/12/08 01:49:01;;;;;;;12.10;6.80;;;;;;;;;;5039281;28;20060;-77
2023/12/08 01:51:28;;;;;;;10.73;6.65;;;;;;;;;;5088777;28;20049;-77
2023/12/08 01:53:55;;;;;;;10.68;6.90;;;;;;;;;;5088369;28;20139;-77
2023/12/08 01:56:22;;;;;;;10.90;6.75;;;;;;;;;;5052079;28;20053;-77
2023/12/08 01:58:49;;;;;;;10.65;6.90;;;;;;;;;;5051172;28;20081;-78
2023/12/08 02:01:15;;;;;;;13.07;7.50;;;;;;;;;;5089042;28;20093;-78
2023/12/08 02:03:44;;;;;;;11.45;7.07;;;;;;;;;;5068847;28;20060;-77
2023/12/08 02:06:11;;;;;;;11.77;6.93;;;;;;;;;;5035978;28;20490;-77
2023/12/08 02:08:38;;;;;;;11.43;7.60;;;;;;;;;;5064941;28;20091;-77
2023/12/08 02:11:05;;;;;;;10.25;7.00;;;;;;;;;;5047035;28;20048;-77
2023/12/08 02:13:32;;;;;;;9.05;6.65;;;;;;;;;;5071317;28;20152;-78
2023/12/08 02:16:04;;;;;;;11.68;6.78;;;;;;;;;;5054407;28;20056;-77
2023/12/08 02:18:32;;;;;;;11.38;6.97;;;;;;;;;;5052165;28;20053;-77
2023/12/08 02:21:00;;;;;;;11.77;7.30;;;;;;;;;;5036959;28;20079;-77
2023/12/08 02:23:28;;;;;;;11.20;7.07;;;;;;;;;;5051405;28;20422;-77
2023/12/08 02:25:55;;;;;;;10.27;7.00;;;;;;;;;;5082285;28;20088;-77
2023/12/08 02:28:21;;;;;;;11.40;7.30;;;;;;;;;;5051429;28;20107;-78
2023/12/08 02:30:48;;;;;;;13.57;8.50;;;;;;;;;;5069093;28;20127;-77
2023/12/08 02:33:18;;;;;;;8.77;6.63;;;;;;;;;;5088079;28;20087;-77
2023/12/08 02:35:45;;;;;;;12.32;7.53;;;;;;;;;;5051832;28;20079;-78
2023/12/08 02:38:15;;;;;;;12.73;7.38;;;;;;;;;;5087742;28;20131;-77
2023/12/08 02:40:42;;;;;;;10.43;6.68;;;;;;;;;;5051711;28;20104;-77
2023/12/08 02:43:09;;;;;;;13.15;6.90;;;;;;;;;;5087745;28;20517;-77
2023/12/08 02:45:35;;;;;;;12.10;7.60;;;;;;;;;;5050857;28;20499;-77
2023/12/08 02:48:03;;;;;;;13.98;7.78;;;;;;;;;;5067458;28;20057;-77
2023/12/08 02:50:29;;;;;;;12.52;7.53;;;;;;;;;;5049424;28;20099;-77
2023/12/08 02:52:56;;;;;;;11.95;7.65;;;;;;;;;;5087400;28;20555;-77
2023/12/08 02:55:23;;;;;;;12.82;8.13;;;;;;;;;;5087258;28;20075;-77
2023/12/08 02:57:50;;;;;;;10.93;7.30;;;;;;;;;;5087500;28;20140;-77
2023/12/08 03:00:17;;;;;;;10.20;7.18;;;;;;;;;;5072105;28;20122;-77
2023/12/08 03:02:44;;;;;;;12.13;7.00;;;;;;;;;;5087441;28;20088;-78
2023/12/08 03:05:11;;;;;;;13.23;8.27;;;;;;;;;;5087077;28;20052;-77
2023/12/08 03:07:37;;;;;;;12.32;6.75;;;;;;;;;;5087703;28;20148;-77
2023/12/08 03:10:05;;;;;;;11.32;7.40;;;;;;;;;;5087306;28;20060;-77
2023/12/08 03:12:31;;;;;;;14.55;8.32;;;;;;;;;;5050637;28;20072;-77
2023/12/08 03:14:58;;;;;;;11.25;7.75;;;;;;;;;;5082709;28;20132;-78
2023/12/08 03:17:25;;;;;;;12.05;7.68;;;;;;;;;;5050425;28;20118;-77
2023/12/08 03:19:52;;;;;;;11.07;6.55;;;;;;;;;;5050609;28;20064;-77
2023/12/08 03:22:19;;;;;;;13.05;7.53;;;;;;;;;;5087061;28;20048;-77
2023/12/08 03:24:45;;;;;;;12.05;7.35;;;;;;;;;;5086775;28;20510;-77
2023/12/08 03:27:12;;;;;;;14.10;7.32;;;;;;;;;;5087073;28;20084;-77
2023/12/08 03:29:40;;;;;;;14.38;8.18;;;;;;;;;;5086976;28;20056;-77
2023/12/08 03:32:07;;;;;;;13.38;7.75;;;;;;;;;;5050262;28;20187;-78
2023/12/08 03:34:34;;;;;;;11.68;7.60;;;;;;;;;;5032907;28;20059;-77
2023/12/08 03:37:01;;;;;;;12.13;7.85;;;;;;;;;;5070275;28;20106;-77
2023/12/08 03:39:28;;;;;;;11.27;7.45;;;;;;;;;;5066553;28;20049;-77
2023/12/08 03:41:55;;;;;;;12.27;6.95;;;;;;;;;;5053758;28;20055;-78
2023/12/08 03:44:22;;;;;;;13.48;7.78;;;;;;;;;;5086745;28;20482;-77
2023/12/08 03:46:49;;;;;;;12.80;8.65;;;;;;;;;;5070036;28;20088;-77
2023/12/08 03:49:16;;;;;;;10.75;7.25;;;;;;;;;;5086795;28;20585;-77
2023/12/08 03:51:43;;;;;;;13.18;7.63;;;;;;;;;;5086752;28;20059;-78
2023/12/08 03:54:09;;;;;;;15.10;8.85;;;;;;;;;;5086539;28;20083;-77
2023/12/08 03:56:36;;;;;;;12.73;7.50;;;;;;;;;;5086880;28;20056;-77
2023/12/08 03:59:03;;;;;;;12.73;7.82;;;;;;;;;;5069688;28;20057;-78
2023/12/08 04:01:30;;;;;;;13.45;7.68;;;;;;;;;;5069958;28;20070;-78
2023/12/08 04:03:57;;;;;;;11.48;7.45;;;;;;;;;;5068509;28;20056;-77
2023/12/08 04:06:24;;;;;;;12.45;7.85;;;;;;;;;;5086718;28;20555;-77
2023/12/08 04:08:51;;;;;;;14.75;8.68;;;;;;;;;;5070094;28;20128;-77
2023/12/08 04:11:17;;;;;;;10.52;7.50;;;;;;;;;;5049890;28;20153;-77
2023/12/08 04:13:44;;;;;;;10.70;6.72;;;;;;;;;;5066821;28;20131;-77
2023/12/08 04:16:11;;;;;;;11.75;7.18;;;;;;;;;;5086691;28;20080;-77
2023/12/08 04:18:38;;;;;;;11.13;6.97;;;;;;;;;;5070103;28;20059;-77
2023/12/08 04:21:05;;;;;;;10.07;6.80;;;;;;;;;;5069821;28;20052;-77
2023/12/08 04:23:31;;;;;;;14.05;7.20;;;;;;;;;;5069730;28;20058;-78
2023/12/08 04:25:58;;;;;;;11.82;7.50;;;;;;;;;;5069879;28;20083;-77
2023/12/08 04:28:25;;;;;;;11.30;7.20;;;;;;;;;;5069758;28;20053;-77
2023/12/08 04:30:52;;;;;;;12.05;7.63;;;;;;;;;;5086389;28;20057;-77
2023/12/08 04:33:18;;;;;;;11.82;6.97;;;;;;;;;;5071008;28;20052;-77
2023/12/08 04:35:45;;;;;;;13.70;7.35;;;;;;;;;;5050464;28;20080;-77
2023/12/08 04:38:13;;;;;;;11.63;6.82;;;;;;;;;;5049659;28;20487;-77
2023/12/08 04:40:39;;;;;;;11.20;7.10;;;;;;;;;;5049696;28;20052;-77
2023/12/08 04:43:06;;;;;;;9.98;6.28;;;;;;;;;;5070244;28;20088;-77
2023/12/08 04:45:33;;;;;;;10.25;6.00;;;;;;;;;;5069565;28;20056;-77
2023/12/08 04:48:00;;;;;;;9.55;5.80;;;;;;;;;;5087100;28;20060;-77
2023/12/08 04:50:27;;;;;;;9.88;6.40;;;;;;;;;;5053174;28;20144;-77
2023/12/08 04:52:53;;;;;;;11.10;6.78;;;;;;;;;;5069918;28;20075;-77
2023/12/08 04:55:20;;;;;;;12.55;7.07;;;;;;;;;;5089732;28;20056;-77
2023/12/08 04:57:47;;;;;;;11.55;6.53;;;;;;;;;;5089979;28;20045;-78
2023/12/08 05:00:14;;;;;;;13.20;7.95;;;;;;;;;;5073292;28;20427;-78
2023/12/08 05:02:41;;;;;;;13.38;7.95;;;;;;;;;;5089882;28;20128;-77
2023/12/08 05:05:08;;;;;;;16.05;6.78;;;;;;;;;;5089368;28;20066;-77
2023/12/08 05:07:35;;;;;;;10.77;7.50;;;;;;;;;;5069558;28;20053;-77
2023/12/08 05:10:01;;;;;;;9.75;6.95;;;;;;;;;;5072282;28;20514;-77
2023/12/08 05:12:28;;;;;;;8.65;5.80;;;;;;;;;;5036259;28;20495;-78
2023/12/08 05:14:55;;;;;;;10.35;6.22;;;;;;;;;;5053294;28;20052;-78
2023/12/08 05:17:22;;;;;;;10.45;7.00;;;;;;;;;;5089356;28;20517;-77
2023/12/08 05:19:49;;;;;;;10.82;7.03;;;;;;;;;;5054224;28;20053;-77
2023/12/08 05:22:16;;;;;;;13.00;7.10;;;;;;;;;;5089403;28;20114;-78
2023/12/08 05:24:43;;;;;;;11.75;6.70;;;;;;;;;;5069091;28;20103;-77
2023/12/08 05:27:09;;;;;;;11.90;7.88;;;;;;;;;;5072956;28;20052;-77
2023/12/08 05:29:37;;;;;;;11.85;6.85;;;;;;;;;;5089297;28;20049;-77
2023/12/08 05:32:04;;;;;;;11.38;6.60;;;;;;;;;;5072240;28;20048;-77
2023/12/08 05:34:31;;;;;;;11.90;7.28;;;;;;;;;;5052069;28;20469;-77
2023/12/08 05:36:57;;;;;;;12.23;6.90;;;;;;;;;;5055700;28;20140;-77
2023/12/08 05:39:24;;;;;;;13.98;7.22;;;;;;;;;;5088795;28;20114;-78
2023/12/08 05:41:52;;;;;;;12.60;7.82;;;;;;;;;;5088812;28;20052;-78
2023/12/08 05:44:19;;;;;;;15.02;8.13;;;;;;;;;;5088747;28;20049;-77
2023/12/08 05:46:46;;;;;;;17.83;7.70;;;;;;;;;;5036640;28;20057;-78
2023/12/08 05:49:13;;;;;;;11.57;8.00;;;;;;;;;;5084431;28;20106;-77
2023/12/08 05:51:40;;;;;;;16.30;8.93;;;;;;;;;;5068361;28;20127;-77
2023/12/08 05:54:07;;;;;;;11.85;7.55;;;;;;;;;;5063724;28;20574;-78
2023/12/08 05:56:34;;;;;;;14.13;7.20;;;;;;;;;;5072013;28;20056;-78
2023/12/08 05:59:00;;;;;;;11.90;7.85;;;;;;;;;;5088765;28;20361;-78
2023/12/08 06:01:27;;;;;;;13.90;7.70;;;;;;;;;;5035333;28;20511;-78
2023/12/08 06:03:54;;;;;;;14.38;7.20;;;;;;;;;;5052102;28;20095;-78
2023/12/08 06:06:21;;;;;;;14.65;6.97;;;;;;;;;;5088517;28;20056;-78
2023/12/08 06:08:48;;;;;;;12.20;6.82;;;;;;;;;;5069723;28;20049;-77
2023/12/08 06:11:15;;;;;;;10.70;7.07;;;;;;;;;;5068506;28;20053;-78
2023/12/08 06:13:41;;;;;;;12.35;6.43;;;;;;;;;;5054861;28;20556;-78
2023/12/08 06:16:08;;;;;;;13.00;6.60;;;;;;;;;;5051570;28;20081;-78
2023/12/08 06:18:35;;;;;;;12.23;7.30;;;;;;;;;;5031205;28;20056;-78
2023/12/08 06:21:03;;;;;;;17.23;6.93;;;;;;;;;;5054593;28;20048;-78
2023/12/08 06:23:30;;;;;;;11.07;7.53;;;;;;;;;;5035427;28;20052;-77
2023/12/08 06:25:57;;;;;;;12.20;8.20;;;;;;;;;;5052818;28;20081;-78
2023/12/08 06:28:24;;;;;;;14.48;8.15;;;;;;;;;;5051581;28;20053;-78
2023/12/08 06:30:51;;;;;;;12.02;7.55;;;;;;;;;;5051101;28;20081;-78
2023/12/08 06:33:18;;;;;;;13.50;7.72;;;;;;;;;;5051390;28;20453;-78
2023/12/08 06:35:45;;;;;;;12.77;7.63;;;;;;;;;;5065916;28;20080;-78
2023/12/08 06:38:12;;;;;;;15.65;8.25;;;;;;;;;;5034992;28;20569;-78
2023/12/08 06:40:40;;;;;;;11.80;8.32;;;;;;;;;;5031504;28;20102;-78
2023/12/08 06:43:07;;;;;;;14.23;8.32;;;;;;;;;;5043663;28;20052;-78
2023/12/08 06:45:34;;;;;;;17.33;8.45;;;;;;;;;;5050714;28;20052;-78
2023/12/08 06:48:00;;;;;;;14.00;8.52;;;;;;;;;;5056130;28;20099;-78
2023/12/08 06:50:27;;;;;;;14.43;8.73;;;;;;;;;;5089676;28;20092;-78
2023/12/08 06:52:54;;;;;;;15.25;8.73;;;;;;;;;;5054782;28;20495;-78
2023/12/08 06:55:22;;;;;;;16.90;9.43;;;;;;;;;;5069633;28;20053;-78
2023/12/08 06:57:49;;;;;;;11.68;8.23;;;;;;;;;;5056166;28;20052;-78
2023/12/08 07:00:16;;;;;;;14.68;9.43;;;;;;;;;;5088650;28;20088;-78
2023/12/08 07:02:44;;;;;;;12.95;8.85;;;;;;;;;;5052432;28;20080;-78
2023/12/08 07:05:11;;;;;;;17.15;10.50;;;;;;;;;;5036727;28;20466;-78
2023/12/08 07:07:38;;;;;;;16.70;9.98;;;;;;;;;;5067314;28;20057;-78
2023/12/08 07:10:05;;;;;;;14.80;10.43;;;;;;;;;;5048773;28;20082;-78
2023/12/08 07:12:33;;;;;;;17.08;10.52;;;;;;;;;;5053312;28;20053;-78
2023/12/08 07:14:59;;;;;;;17.35;10.02;;;;;;;;;;5070998;28;20141;-78
2023/12/08 07:17:27;;;;;;;18.17;9.75;;;;;;;;;;5053384;28;20103;-78
2023/12/08 07:19:54;;;;;;;14.27;9.13;;;;;;;;;;5072183;28;20048;-78
2023/12/08 07:22:21;;;;;;;15.40;10.02;;;;;;;;;;5055342;28;20049;-78
2023/12/08 07:24:48;;;;;;;17.52;9.70;;;;;;;;;;5070114;28;20072;-78
2023/12/08 07:27:15;;;;;;;14.52;9.25;;;;;;;;;;5055750;28;20106;-79
2023/12/08 07:29:41;;;;;;;18.75;10.43;;;;;;;;;;5073307;28;20056;-79
2023/12/08 07:32:08;;;;;;;20.65;11.60;;;;;;;;;;5092000;28;20059;-78
2023/12/08 07:34:35;;;;;;;15.38;10.43;;;;;;;;;;5071786;28;20053;-79
2023/12/08 07:37:02;;;;;;;16.15;9.68;;;;;;;;;;5042511;28;20063;-79
2023/12/08 07:39:29;;;;;;;21.02;11.30;;;;;;;;;;5055528;28;20056;-79
2023/12/08 07:41:56;;;;;;;19.77;11.68;;;;;;;;;;5057307;28;20080;-79
2023/12/08 07:44:23;;;;;;;16.38;10.05;;;;;;;;;;5092243;28;20598;-79
2023/12/08 07:46:49;;;;;;;17.20;10.73;;;;;;;;;;5092481;28;20052;-79
2023/12/08 07:49:16;;;;;;;17.30;10.27;;;;;;;;;;5055713;28;20137;-79
2023/12/08 07:51:43;;;;;;;17.98;9.95;;;;;;;;;;5042118;28;20122;-79
2023/12/08 07:54:10;;;;;;;19.02;9.73;;;;;;;;;;5055881;28;20089;-80
2023/12/08 07:56:37;;;;;;;15.63;9.90;;;;;;;;;;5051935;28;20136;-80
2023/12/08 07:59:03;;;;;;;14.55;8.93;;;;;;;;;;5075997;28;20425;-79
2023/12/08 08:01:31;;;;;;;15.07;8.35;;;;;;;;;;5072613;28;20057;-79
2023/12/08 08:03:58;;;;;;;13.43;7.85;;;;;;;;;;5058018;28;20098;-80
2023/12/08 08:06:25;;;;;;;13.45;8.77;;;;;;;;;;5100129;28;20053;-80
2023/12/08 08:08:52;;;;;;;11.85;8.02;;;;;;;;;;5092346;28;20572;-80
2023/12/08 08:11:19;;;;;;;11.50;7.18;;;;;;;;;;5075400;28;20041;-80
2023/12/08 08:13:45;;;;;;;12.25;8.10;;;;;;;;;;5051779;28;20053;-80
2023/12/08 08:16:12;;;;;;;11.10;6.57;;;;;;;;;;5053795;28;20057;-80
2023/12/08 08:18:39;;;;;;;10.30;6.60;;;;;;;;;;5071941;28;20048;-80
2023/12/08 08:21:06;;;;;;;14.15;7.10;;;;;;;;;;5093256;28;20053;-81
2023/12/08 08:23:33;;;;;;;12.45;7.43;;;;;;;;;;5062070;28;20044;-80
2023/12/08 08:26:00;;;;;;;10.63;6.90;;;;;;;;;;5064570;28;20060;-80
2023/12/08 08:28:26;;;;;;;11.75;6.47;;;;;;;;;;5060577;28;20521;-80
2023/12/08 08:30:53;;;;;;;10.73;6.68;;;;;;;;;;5044326;28;20119;-80
2023/12/08 08:33:20;;;;;;;9.73;6.68;;;;;;;;;;5060456;28;20049;-80
2023/12/08 08:35:47;;;;;;;13.27;7.00;;;;;;;;;;5060245;28;20052;-80
2023/12/08 08:38:14;;;;;;;11.20;7.07;;;;;;;;;;5094498;28;20067;-80
2023/12/08 08:40:41;;;;;;;12.02;6.97;;;;;;;;;;5060257;28;20048;-80
2023/12/08 08:43:08;;;;;;;10.85;7.03;;;;;;;;;;5056586;28;20099;-80
2023/12/08 08:45:35;;;;;;;12.07;6.65;;;;;;;;;;5056570;28;20465;-80
2023/12/08 08:48:03;;;;;;;9.93;6.63;;;;;;;;;;5080661;28;20056;-80
2023/12/08 08:50:30;;;;;;;12.02;7.30;;;;;;;;;;5053630;28;20053;-80
2023/12/08 08:53:13;;;;;;;12.18;7.13;;;;;;;;;;5092981;28;20044;-80
2023/12/08 08:55:40;;;;;;;10.50;6.65;;;;;;;;;;5116677;28;20038;-79
2023/12/08 08:58:07;;;;;;;11.13;7.13;;;;;;;;;;5078865;28;20072;-80
2023/12/08 09:00:34;;;;;;;15.00;7.38;;;;;;;;;;5089253;28;20139;-80
2023/12/08 09:03:02;;;;;;;11.43;7.30;;;;;;;;;;5079818;28;20052;-80
2023/12/08 09:05:30;;;;;;;12.45;7.93;;;;;;;;;;5088444;28;20062;-80
2023/12/08 09:07:57;;;;;;;12.52;8.02;;;;;;;;;;5078552;28;20064;-80
2023/12/08 09:10:24;;;;;;;12.45;8.00;;;;;;;;;;5101248;28;20082;-80
2023/12/08 09:12:51;;;;;;;9.95;6.65;;;;;;;;;;5069329;28;20080;-80
2023/12/08 09:15:18;;;;;;;10.73;7.28;;;;;;;;;;5094688;28;20052;-80
2023/12/08 09:17:44;;;;;;;11.00;6.65;;;;;;;;;;5070083;28;20100;-80
2023/12/08 09:20:14;;;;;;;11.90;7.32;;;;;;;;;;5071051;28;20147;-80
2023/12/08 09:22:44;;;;;;;12.02;6.10;;;;;;;;;;5094699;28;20056;-80
2023/12/08 09:25:11;;;;;;;10.68;6.88;;;;;;;;;;5077850;28;20493;-80
2023/12/08 09:27:38;;;;;;;11.35;6.65;;;;;;;;;;5057828;28;20045;-80
2023/12/08 09:30:05;;;;;;;9.52;6.50;;;;;;;;;;5060899;28;20089;-80
2023/12/08 09:32:33;;;;;;;10.25;6.55;;;;;;;;;;5058010;28;20495;-80
2023/12/08 09:34:59;;;;;;;12.30;6.82;;;;;;;;;;5059743;28;20053;-80
2023/12/08 09:37:26;;;;;;;12.60;6.30;;;;;;;;;;5058201;28;20053;-80
2023/12/08 09:40:05;;;;;;;10.07;6.10;;;;;;;;;;5067932;28;20052;-80
2023/12/08 09:42:36;;;;;;;11.18;6.10;;;;;;;;;;5095112;28;20104;-80
2023/12/08 09:45:09;;;;;;;9.73;5.75;;;;;;;;;;5061037;28;20052;-80
2023/12/08 09:47:36;;;;;;;10.43;6.03;;;;;;;;;;5043514;28;20434;-80
2023/12/08 09:50:09;;;;;;;10.32;5.97;;;;;;;;;;5077912;28;20159;-80
2023/12/08 09:52:36;;;;;;;9.93;6.15;;;;;;;;;;5075476;28;20045;-81
2023/12/08 09:55:04;;;;;;;9.05;6.10;;;;;;;;;;5077926;28;20052;-80
2023/12/08 09:57:35;;;;;;;8.68;5.80;;;;;;;;;;5074805;28;20064;-80
2023/12/08 10:00:12;;;;;;;8.10;5.50;;;;;;;;;;5045165;28;20052;-80
2023/12/08 10:02:39;;;;;;;8.98;5.60;;;;;;;;;;5094912;28;20075;-80
2023/12/08 10:05:07;;;;;;;11.65;6.65;;;;;;;;;;5056865;28;20071;-80
2023/12/08 10:07:34;;;;;;;10.52;6.60;;;;;;;;;;5053663;28;20057;-80
2023/12/08 10:10:02;;;;;;;12.07;6.40;;;;;;;;;;5060117;28;20053;-81
2023/12/08 10:12:28;;;;;;;10.82;5.88;;;;;;;;;;5056841;28;20091;-81
2023/12/08 10:14:57;;;;;;;11.13;6.13;;;;;;;;;;5030444;28;20049;-80
2023/12/08 10:17:24;;;;;;;11.35;8.05;;;;;;;;;;5054650;28;20140;-80
2023/12/08 10:20:08;;;;;;;12.23;6.60;;;;;;;;;;5058280;28;20088;-80
2023/12/08 10:22:48;;;;;;;9.20;6.85;;;;;;;;;;5092963;28;20071;-80
2023/12/08 10:25:16;;;;;;;11.43;6.95;;;;;;;;;;5056099;28;20053;-80
2023/12/08 10:27:48;;;;;;;12.23;6.55;;;;;;;;;;5065084;28;20053;-80
2023/12/08 10:30:16;;;;;;;17.05;7.88;;;;;;;;;;5055916;28;20053;-80
2023/12/08 10:32:44;;;;;;;13.35;6.28;;;;;;;;;;5036122;28;20045;-80
2023/12/08 10:35:14;;;;;;;11.38;6.30;;;;;;;;;;5091569;28;20608;-80
2023/12/08 10:37:41;;;;;;;9.32;6.28;;;;;;;;;;5076293;28;20096;-80
2023/12/08 10:40:10;;;;;;;11.07;6.95;;;;;;;;;;5077757;28;20036;-80
2023/12/08 10:42:37;;;;;;;12.75;8.65;;;;;;;;;;5057644;28;20086;-81
2023/12/08 10:45:11;;;;;;;11.57;7.45;;;;;;;;;;5080664;28;20059;-81
2023/12/08 10:47:42;;;;;;;11.98;6.93;;;;;;;;;;5109492;28;20048;-80
2023/12/08 10:50:11;;;;;;;14.60;6.88;;;;;;;;;;5081408;28;20052;-80
2023/12/08 10:52:39;;;;;;;13.10;7.07;;;;;;;;;;5053236;28;20071;-80
2023/12/08 10:55:06;;;;;;;12.88;7.22;;;;;;;;;;5071202;28;20057;-80
2023/12/08 10:57:36;;;;;;;16.52;7.07;;;;;;;;;;5055782;28;20060;-80
2023/12/08 11:00:12;;;;;;;9.43;5.78;;;;;;;;;;5040458;28;20460;-80
2023/12/08 11:02:41;;;;;;;10.52;7.78;;;;;;;;;;5062862;28;20055;-80
2023/12/08 11:05:10;;;;;;;9.65;6.32;;;;;;;;;;5056921;28;20522;-80
2023/12/08 11:07:38;;;;;;;8.02;4.95;;;;;;;;;;5057611;28;20367;-80
2023/12/08 11:10:07;;;;;;;7.15;4.80;;;;;;;;;;5068129;28;20114;-80
2023/12/08 11:12:40;;;;;;;9.10;5.30;;;;;;;;;;5069998;28;20041;-80
2023/12/08 11:15:09;;;;;;;8.60;5.30;;;;;;;;;;5059665;28;20084;-80
2023/12/08 11:18:02;;;;;;;7.90;5.25;;;;;;;;;;5043142;28;20060;-80
2023/12/08 11:20:29;;;;;;;8.93;4.75;;;;;;;;;;5057145;28;20053;-81
2023/12/08 11:22:56;;;;;;;7.75;5.13;;;;;;;;;;5060381;28;20482;-81
2023/12/08 11:25:33;;;;;;;9.73;5.57;;;;;;;;;;5040035;28;20052;-81
2023/12/08 11:28:17;;;;;;;7.10;4.28;;;;;;;;;;5075005;28;20057;-81
2023/12/08 11:31:06;;;;;;;9.98;4.65;;;;;;;;;;5057066;28;20098;-81
2023/12/08 11:33:47;;;;;;;5.47;4.60;;;;;;;;;;5055278;28;20060;-82
2023/12/08 11:36:18;;;;;;;7.07;4.38;;;;;;;;;;5041344;28;20053;-81
2023/12/08 11:38:45;;;;;;;7.35;4.95;;;;;;;;;;5040115;28;20402;-81
2023/12/08 11:41:13;;;;;;;6.53;4.45;;;;;;;;;;5040000;28;20418;-81
2023/12/08 11:43:42;;;;;;;6.10;3.60;;;;;;;;;;5052176;28;20077;-82
2023/12/08 11:46:09;;;;;;;7.45;4.80;;;;;;;;;;5092901;28;20465;-81
2023/12/08 11:48:36;;;;;;;6.22;4.32;;;;;;;;;;5040018;28;20111;-81
2023/12/08 11:51:07;;;;;;;7.43;4.95;;;;;;;;;;5042042;28;20044;-81
2023/12/08 11:53:57;;;;;;;9.50;4.68;;;;;;;;;;5056726;28;20045;-81
2023/12/08 11:56:42;;;;;;;6.28;4.55;;;;;;;;;;5062170;28;20095;-81
2023/12/08 11:59:29;;;;;;;8.50;4.90;;;;;;;;;;5072639;28;20110;-81
2023/12/08 12:01:56;;;;;;;7.50;4.90;;;;;;;;;;5096898;28;20048;-81
2023/12/08 12:04:23;;;;;;;8.38;5.32;;;;;;;;;;5076223;28;20498;-82
2023/12/08 12:06:52;;;;;;;8.88;4.65;;;;;;;;;;5060775;28;20053;-81
2023/12/08 12:09:20;;;;;;;7.75;4.60;;;;;;;;;;5097234;28;20131;-81
2023/12/08 12:11:47;;;;;;;6.97;4.38;;;;;;;;;;5044626;28;20088;-81
2023/12/08 12:14:14;;;;;;;8.32;4.10;;;;;;;;;;5059490;28;20060;-81
2023/12/08 12:16:41;;;;;;;8.88;4.07;;;;;;;;;;5039125;28;20079;-81
2023/12/08 12:19:08;;;;;;;7.60;4.28;;;;;;;;;;5043693;28;20079;-81
2023/12/08 12:21:36;;;;;;;6.38;4.53;;;;;;;;;;5056746;28;20053;-81
2023/12/08 12:24:03;;;;;;;9.70;3.90;;;;;;;;;;5063571;28;20052;-82
2023/12/08 12:26:30;;;;;;;8.68;4.18;;;;;;;;;;5076837;28;20083;-81
2023/12/08 12:28:57;;;;;;;5.13;3.78;;;;;;;;;;5064171;28;20059;-81
2023/12/08 12:31:23;;;;;;;8.68;4.05;;;;;;;;;;5061105;28;20052;-82
2023/12/08 12:33:50;;;;;;;7.13;4.28;;;;;;;;;;5078336;28;20047;-81
2023/12/08 12:36:17;;;;;;;8.25;4.10;;;;;;;;;;5076832;28;20056;-81
2023/12/08 12:38:44;;;;;;;6.53;3.97;;;;;;;;;;5077311;28;20060;-81
2023/12/08 12:41:22;;;;;;;7.22;4.60;;;;;;;;;;5058013;28;20091;-82
2023/12/08 12:43:55;;;;;;;7.93;4.28;;;;;;;;;;5063681;28;20104;-81
2023/12/08 12:46:22;;;;;;;5.95;4.22;;;;;;;;;;5043402;28;20057;-81
2023/12/08 12:48:49;;;;;;;8.15;5.25;;;;;;;;;;5059195;28;20126;-81
2023/12/08 12:51:33;;;;;;;9.55;4.47;;;;;;;;;;5059007;28;20130;-81
2023/12/08 12:54:00;;;;;;;6.15;4.50;;;;;;;;;;5063101;28;20106;-81
2023/12/08 12:56:27;;;;;;;14.35;8.68;;;;;;;;;;5058725;28;20106;-81
2023/12/08 12:59:10;;;;;;;79.97;42.75;;;;;;;;;;5058967;28;20087;-81
2023/12/08 13:01:37;;;;;;;249.45;105.65;;;;;;;;;;5058802;28;20087;-81
2023/12/08 13:04:04;;;;;;;431.60;169.18;;;;;;;;;;5074873;28;20080;-81
2023/12/08 13:06:33;;;;;;;262.45;106.82;;;;;;;;;;5057758;28;20049;-81
2023/12/08 13:09:03;;;;;;;99.25;44.67;;;;;;;;;;5090204;28;20056;-81
2023/12/08 13:11:29;;;;;;;26.52;13.95;;;;;;;;;;5075695;28;20048;-81
2023/12/08 13:13:56;;;;;;;15.98;8.40;;;;;;;;;;5093375;28;20053;-81
2023/12/08 13:16:24;;;;;;;8.63;5.88;;;;;;;;;;5040810;28;20052;-81
2023/12/08 13:18:51;;;;;;;9.50;4.97;;;;;;;;;;5043254;28;20056;-81
2023/12/08 13:21:18;;;;;;;6.78;5.10;;;;;;;;;;5074151;28;20056;-81
2023/12/08 13:23:46;;;;;;;6.80;4.93;;;;;;;;;;5074270;28;20051;-81
2023/12/08 13:26:13;;;;;;;8.55;5.38;;;;;;;;;;5094598;28;20113;-81
2023/12/08 13:28:40;;;;;;;8.23;5.07;;;;;;;;;;5060385;28;20518;-81
2023/12/08 13:31:07;;;;;;;7.80;5.43;;;;;;;;;;5093985;28;20084;-81
2023/12/08 13:33:33;;;;;;;7.85;4.90;;;;;;;;;;5060672;28;20044;-81
2023/12/08 13:36:00;;;;;;;7.00;5.30;;;;;;;;;;5060613;28;20064;-81
2023/12/08 13:38:27;;;;;;;9.10;5.53;;;;;;;;;;5055517;28;20128;-81
2023/12/08 13:40:54;;;;;;;8.88;5.25;;;;;;;;;;5072369;28;20048;-81
2023/12/08 13:43:21;;;;;;;9.23;5.50;;;;;;;;;;5055741;28;20106;-81
2023/12/08 13:45:48;;;;;;;7.25;5.03;;;;;;;;;;5071003;28;20057;-81
2023/12/08 13:48:16;;;;;;;8.30;5.72;;;;;;;;;;5071539;28;20079;-81
2023/12/08 13:50:43;;;;;;;9.20;5.80;;;;;;;;;;5055110;28;20508;-81
2023/12/08 13:53:25;;;;;;;7.53;5.53;;;;;;;;;;5074840;28;20057;-81
2023/12/08 13:55:52;;;;;;;9.57;5.57;;;;;;;;;;5072066;28;20056;-81
2023/12/08 13:58:19;;;;;;;9.60;6.32;;;;;;;;;;5090358;28;20094;-81
2023/12/08 14:00:46;;;;;;;9.35;6.50;;;;;;;;;;5090110;28;20052;-81
2023/12/08 14:03:13;;;;;;;8.93;6.03;;;;;;;;;;5053648;28;20096;-81
2023/12/08 14:05:39;;;;;;;12.05;7.00;;;;;;;;;;5049531;28;20163;-81
2023/12/08 14:08:08;;;;;;;18.30;11.25;;;;;;;;;;5066390;28;20048;-81
2023/12/08 14:10:35;;;;;;;16.90;10.68;;;;;;;;;;5073751;28;20498;-81
2023/12/08 14:13:04;;;;;;;14.10;8.48;;;;;;;;;;5078841;28;20088;-81
2023/12/08 14:15:32;;;;;;;14.98;8.93;;;;;;;;;;5047990;28;20128;-81
2023/12/08 14:17:58;;;;;;;18.65;9.07;;;;;;;;;;5066821;28;20041;-81
2023/12/08 14:20:25;;;;;;;17.20;9.15;;;;;;;;;;5076089;28;20037;-81
2023/12/08 14:22:52;;;;;;;12.40;7.68;;;;;;;;;;5095679;28;20062;-81
2023/12/08 14:25:19;;;;;;;10.30;6.78;;;;;;;;;;5093811;28;20083;-81
2023/12/08 14:27:46;;;;;;;9.75;5.95;;;;;;;;;;5091245;28;20058;-80
2023/12/08 14:30:13;;;;;;;9.73;5.97;;;;;;;;;;5094445;28;20053;-80
2023/12/08 14:32:40;;;;;;;9.10;6.22;;;;;;;;;;5061575;28;20055;-80
2023/12/08 14:35:08;;;;;;;9.30;6.38;;;;;;;;;;5072189;28;20049;-81
2023/12/08 14:37:48;;;;;;;8.55;5.60;;;;;;;;;;5057950;28;20056;-80